sensor_id;sensor_type;location;lat;lon;timestamp;P1;durP1;ratioP1;P2;durP2;ratioP2
77466;SDS011;66564;42.482;25.548;2024-03-29T00:02:03;47.03;;;9.05;;
77466;SDS011;66564;42.482;25.548;2024-03-29T00:04:29;55.97;;;8.50;;
77466;SDS011;66564;42.482;25.548;2024-03-29T00:06:56;57.33;;;7.53;;
77466;SDS011;66564;42.482;25.548;2024-03-29T00:09:21;47.67;;;8.63;;
77466;SDS011;66564;42.482;25.548;2024-03-29T00:11:49;40.67;;;7.63;;
77466;SDS011;66564;42.482;25.548;2024-03-29T00:14:14;51.95;;;9.25;;
77466;SDS011;66564;42.482;25.548;2024-03-29T00:16:40;52.60;;;10.52;;
77466;SDS011;66564;42.482;25.548;2024-03-29T00:19:05;44.75;;;10.25;;
77466;SDS011;66564;42.482;25.548;2024-03-29T00:21:31;44.60;;;8.70;;
77466;SDS011;66564;42.482;25.548;2024-03-29T00:23:56;34.90;;;8.98;;
77466;SDS011;66564;42.482;25.548;2024-03-29T00:26:22;32.05;;;7.00;;
77466;SDS011;66564;42.482;25.548;2024-03-29T00:28:48;44.70;;;9.32;;
77466;SDS011;66564;42.482;25.548;2024-03-29T00:31:13;39.40;;;7.78;;
77466;SDS011;66564;42.482;25.548;2024-03-29T00:33:39;41.78;;;8.05;;
77466;SDS011;66564;42.482;25.548;2024-03-29T00:36:04;43.72;;;10.95;;
77466;SDS011;66564;42.482;25.548;2024-03-29T00:38:30;44.03;;;8.15;;
77466;SDS011;66564;42.482;25.548;2024-03-29T00:40:55;49.65;;;7.72;;
77466;SDS011;66564;42.482;25.548;2024-03-29T00:43:21;48.53;;;7.93;;
77466;SDS011;66564;42.482;25.548;2024-03-29T00:45:46;41.63;;;9.23;;
77466;SDS011;66564;42.482;25.548;2024-03-29T00:48:12;45.97;;;8.57;;
77466;SDS011;66564;42.482;25.548;2024-03-29T00:50:40;35.05;;;7.50;;
77466;SDS011;66564;42.482;25.548;2024-03-29T00:53:06;44.15;;;8.10;;
77466;SDS011;66564;42.482;25.548;2024-03-29T00:55:34;38.78;;;9.13;;
77466;SDS011;66564;42.482;25.548;2024-03-29T00:58:00;43.05;;;8.45;;
77466;SDS011;66564;42.482;25.548;2024-03-29T01:00:25;45.17;;;8.07;;
77466;SDS011;66564;42.482;25.548;2024-03-29T01:02:50;54.05;;;11.45;;
77466;SDS011;66564;42.482;25.548;2024-03-29T01:05:16;46.00;;;7.63;;
77466;SDS011;66564;42.482;25.548;2024-03-29T01:07:42;45.60;;;9.20;;
77466;SDS011;66564;42.482;25.548;2024-03-29T01:10:08;51.45;;;9.45;;
77466;SDS011;66564;42.482;25.548;2024-03-29T01:12:34;41.80;;;8.55;;
77466;SDS011;66564;42.482;25.548;2024-03-29T01:15:04;43.58;;;7.88;;
77466;SDS011;66564;42.482;25.548;2024-03-29T01:17:30;39.80;;;10.13;;
77466;SDS011;66564;42.482;25.548;2024-03-29T01:19:55;47.88;;;10.38;;
77466;SDS011;66564;42.482;25.548;2024-03-29T01:22:21;34.60;;;7.72;;
77466;SDS011;66564;42.482;25.548;2024-03-29T01:24:47;29.35;;;5.45;;
77466;SDS011;66564;42.482;25.548;2024-03-29T01:27:12;34.40;;;6.55;;
77466;SDS011;66564;42.482;25.548;2024-03-29T01:29:38;31.63;;;7.85;;
77466;SDS011;66564;42.482;25.548;2024-03-29T01:32:03;27.52;;;7.07;;
77466;SDS011;66564;42.482;25.548;2024-03-29T01:34:29;34.58;;;7.47;;
77466;SDS011;66564;42.482;25.548;2024-03-29T01:36:55;30.90;;;7.10;;
77466;SDS011;66564;42.482;25.548;2024-03-29T01:39:20;39.33;;;7.70;;
77466;SDS011;66564;42.482;25.548;2024-03-29T01:41:51;30.90;;;6.40;;
77466;SDS011;66564;42.482;25.548;2024-03-29T01:44:17;36.58;;;7.95;;
77466;SDS011;66564;42.482;25.548;2024-03-29T01:46:43;29.20;;;5.82;;
77466;SDS011;66564;42.482;25.548;2024-03-29T01:49:09;30.52;;;5.55;;
77466;SDS011;66564;42.482;25.548;2024-03-29T01:51:36;30.88;;;6.43;;
77466;SDS011;66564;42.482;25.548;2024-03-29T01:54:04;23.70;;;5.38;;
77466;SDS011;66564;42.482;25.548;2024-03-29T01:56:31;31.77;;;6.30;;
77466;SDS011;66564;42.482;25.548;2024-03-29T01:58:57;23.75;;;6.00;;
77466;SDS011;66564;42.482;25.548;2024-03-29T02:01:24;22.50;;;5.07;;
77466;SDS011;66564;42.482;25.548;2024-03-29T02:03:51;30.60;;;5.80;;
77466;SDS011;66564;42.482;25.548;2024-03-29T02:06:18;29.45;;;6.10;;
77466;SDS011;66564;42.482;25.548;2024-03-29T02:08:43;30.63;;;6.53;;
77466;SDS011;66564;42.482;25.548;2024-03-29T02:11:09;25.75;;;6.25;;
77466;SDS011;66564;42.482;25.548;2024-03-29T02:13:37;34.92;;;7.82;;
77466;SDS011;66564;42.482;25.548;2024-03-29T02:16:02;30.48;;;6.38;;
77466;SDS011;66564;42.482;25.548;2024-03-29T02:18:28;38.85;;;6.78;;
77466;SDS011;66564;42.482;25.548;2024-03-29T02:20:56;36.25;;;8.80;;
77466;SDS011;66564;42.482;25.548;2024-03-29T02:23:27;35.90;;;7.68;;
77466;SDS011;66564;42.482;25.548;2024-03-29T02:25:55;22.98;;;6.60;;
77466;SDS011;66564;42.482;25.548;2024-03-29T02:28:23;28.30;;;6.47;;
77466;SDS011;66564;42.482;25.548;2024-03-29T02:30:49;27.25;;;5.88;;
77466;SDS011;66564;42.482;25.548;2024-03-29T02:33:15;33.58;;;6.85;;
77466;SDS011;66564;42.482;25.548;2024-03-29T02:35:41;26.48;;;7.25;;
77466;SDS011;66564;42.482;25.548;2024-03-29T02:38:06;24.67;;;6.95;;
77466;SDS011;66564;42.482;25.548;2024-03-29T02:40:32;33.03;;;6.78;;
77466;SDS011;66564;42.482;25.548;2024-03-29T02:42:57;29.83;;;7.88;;
77466;SDS011;66564;42.482;25.548;2024-03-29T02:45:23;33.65;;;5.65;;
77466;SDS011;66564;42.482;25.548;2024-03-29T02:47:48;16.85;;;5.50;;
77466;SDS011;66564;42.482;25.548;2024-03-29T02:50:16;36.72;;;6.65;;
77466;SDS011;66564;42.482;25.548;2024-03-29T02:52:41;28.25;;;5.78;;
77466;SDS011;66564;42.482;25.548;2024-03-29T02:55:08;21.10;;;6.45;;
77466;SDS011;66564;42.482;25.548;2024-03-29T02:57:35;29.33;;;6.03;;
77466;SDS011;66564;42.482;25.548;2024-03-29T03:00:01;31.05;;;5.30;;
77466;SDS011;66564;42.482;25.548;2024-03-29T03:02:28;20.25;;;6.28;;
77466;SDS011;66564;42.482;25.548;2024-03-29T03:04:53;20.95;;;5.28;;
77466;SDS011;66564;42.482;25.548;2024-03-29T03:07:19;20.88;;;4.55;;
77466;SDS011;66564;42.482;25.548;2024-03-29T03:10:03;31.33;;;5.40;;
77466;SDS011;66564;42.482;25.548;2024-03-29T03:12:47;22.67;;;4.90;;
77466;SDS011;66564;42.482;25.548;2024-03-29T03:15:13;23.73;;;4.93;;
77466;SDS011;66564;42.482;25.548;2024-03-29T03:17:38;32.17;;;6.07;;
77466;SDS011;66564;42.482;25.548;2024-03-29T03:20:04;30.27;;;5.25;;
77466;SDS011;66564;42.482;25.548;2024-03-29T03:22:31;29.10;;;6.00;;
77466;SDS011;66564;42.482;25.548;2024-03-29T03:24:57;22.70;;;5.30;;
77466;SDS011;66564;42.482;25.548;2024-03-29T03:27:22;29.95;;;5.28;;
77466;SDS011;66564;42.482;25.548;2024-03-29T03:29:48;35.40;;;6.85;;
77466;SDS011;66564;42.482;25.548;2024-03-29T03:32:14;22.10;;;4.38;;
77466;SDS011;66564;42.482;25.548;2024-03-29T03:34:39;18.67;;;4.07;;
77466;SDS011;66564;42.482;25.548;2024-03-29T03:37:05;16.17;;;4.22;;
77466;SDS011;66564;42.482;25.548;2024-03-29T03:39:30;18.38;;;3.85;;
77466;SDS011;66564;42.482;25.548;2024-03-29T03:41:56;16.05;;;4.18;;
77466;SDS011;66564;42.482;25.548;2024-03-29T03:44:21;32.05;;;5.22;;
77466;SDS011;66564;42.482;25.548;2024-03-29T03:46:49;38.00;;;7.05;;
77466;SDS011;66564;42.482;25.548;2024-03-29T03:49:15;48.70;;;7.10;;
77466;SDS011;66564;42.482;25.548;2024-03-29T03:51:41;30.67;;;6.10;;
77466;SDS011;66564;42.482;25.548;2024-03-29T03:54:06;37.72;;;6.13;;
77466;SDS011;66564;42.482;25.548;2024-03-29T03:56:32;28.52;;;5.80;;
77466;SDS011;66564;42.482;25.548;2024-03-29T03:58:57;26.63;;;5.50;;
77466;SDS011;66564;42.482;25.548;2024-03-29T04:01:23;24.92;;;6.05;;
77466;SDS011;66564;42.482;25.548;2024-03-29T04:03:48;31.08;;;5.07;;
77466;SDS011;66564;42.482;25.548;2024-03-29T04:06:14;22.35;;;4.15;;
77466;SDS011;66564;42.482;25.548;2024-03-29T04:08:39;13.05;;;4.53;;
77466;SDS011;66564;42.482;25.548;2024-03-29T04:11:05;19.83;;;4.55;;
77466;SDS011;66564;42.482;25.548;2024-03-29T04:13:30;22.38;;;4.45;;
77466;SDS011;66564;42.482;25.548;2024-03-29T04:16:05;26.95;;;4.25;;
77466;SDS011;66564;42.482;25.548;2024-03-29T04:18:32;22.40;;;4.45;;
77466;SDS011;66564;42.482;25.548;2024-03-29T04:20:58;17.02;;;3.60;;
77466;SDS011;66564;42.482;25.548;2024-03-29T04:23:25;19.35;;;5.15;;
77466;SDS011;66564;42.482;25.548;2024-03-29T04:25:51;20.02;;;5.25;;
77466;SDS011;66564;42.482;25.548;2024-03-29T04:28:20;28.85;;;5.93;;
77466;SDS011;66564;42.482;25.548;2024-03-29T04:33:17;34.30;;;6.72;;
77466;SDS011;66564;42.482;25.548;2024-03-29T04:35:51;33.63;;;6.32;;
77466;SDS011;66564;42.482;25.548;2024-03-29T04:38:30;27.27;;;5.22;;
77466;SDS011;66564;42.482;25.548;2024-03-29T04:40:57;32.58;;;7.18;;
77466;SDS011;66564;42.482;25.548;2024-03-29T04:43:27;45.28;;;4.90;;
77466;SDS011;66564;42.482;25.548;2024-03-29T04:46:10;34.08;;;5.75;;
77466;SDS011;66564;42.482;25.548;2024-03-29T04:48:37;25.38;;;4.80;;
77466;SDS011;66564;42.482;25.548;2024-03-29T04:51:03;25.80;;;6.10;;
77466;SDS011;66564;42.482;25.548;2024-03-29T04:53:29;30.13;;;5.53;;
77466;SDS011;66564;42.482;25.548;2024-03-29T04:56:00;18.52;;;5.18;;
77466;SDS011;66564;42.482;25.548;2024-03-29T04:58:25;27.70;;;5.45;;
77466;SDS011;66564;42.482;25.548;2024-03-29T05:00:51;23.33;;;5.93;;
77466;SDS011;66564;42.482;25.548;2024-03-29T05:03:17;45.78;;;7.95;;
77466;SDS011;66564;42.482;25.548;2024-03-29T05:05:43;61.72;;;7.10;;
77466;SDS011;66564;42.482;25.548;2024-03-29T05:08:10;38.50;;;7.72;;
77466;SDS011;66564;42.482;25.548;2024-03-29T05:10:35;22.00;;;7.20;;
77466;SDS011;66564;42.482;25.548;2024-03-29T05:13:01;33.65;;;6.82;;
77466;SDS011;66564;42.482;25.548;2024-03-29T05:15:27;32.90;;;5.72;;
77466;SDS011;66564;42.482;25.548;2024-03-29T05:17:52;33.05;;;6.45;;
77466;SDS011;66564;42.482;25.548;2024-03-29T05:20:20;26.05;;;6.97;;
77466;SDS011;66564;42.482;25.548;2024-03-29T05:22:46;34.50;;;5.07;;
77466;SDS011;66564;42.482;25.548;2024-03-29T05:25:11;28.27;;;4.95;;
77466;SDS011;66564;42.482;25.548;2024-03-29T05:27:37;34.65;;;6.38;;
77466;SDS011;66564;42.482;25.548;2024-03-29T05:30:03;34.72;;;5.40;;
77466;SDS011;66564;42.482;25.548;2024-03-29T05:32:29;36.38;;;8.77;;
77466;SDS011;66564;42.482;25.548;2024-03-29T05:34:58;57.17;;;7.20;;
77466;SDS011;66564;42.482;25.548;2024-03-29T05:37:23;57.10;;;8.50;;
77466;SDS011;66564;42.482;25.548;2024-03-29T05:39:52;31.23;;;5.85;;
77466;SDS011;66564;42.482;25.548;2024-03-29T05:42:27;21.35;;;5.18;;
77466;SDS011;66564;42.482;25.548;2024-03-29T05:44:53;26.95;;;4.78;;
77466;SDS011;66564;42.482;25.548;2024-03-29T05:47:19;13.48;;;3.63;;
77466;SDS011;66564;42.482;25.548;2024-03-29T05:49:45;19.10;;;4.70;;
77466;SDS011;66564;42.482;25.548;2024-03-29T05:52:10;11.18;;;3.67;;
77466;SDS011;66564;42.482;25.548;2024-03-29T05:54:39;27.60;;;3.90;;
77466;SDS011;66564;42.482;25.548;2024-03-29T05:57:05;30.27;;;5.75;;
77466;SDS011;66564;42.482;25.548;2024-03-29T05:59:32;23.95;;;4.00;;
77466;SDS011;66564;42.482;25.548;2024-03-29T06:01:58;20.17;;;3.60;;
77466;SDS011;66564;42.482;25.548;2024-03-29T06:04:23;30.48;;;5.18;;
77466;SDS011;66564;42.482;25.548;2024-03-29T06:06:55;17.52;;;3.55;;
77466;SDS011;66564;42.482;25.548;2024-03-29T06:09:23;16.50;;;3.45;;
77466;SDS011;66564;42.482;25.548;2024-03-29T06:11:48;19.90;;;3.13;;
77466;SDS011;66564;42.482;25.548;2024-03-29T06:14:14;10.45;;;2.75;;
77466;SDS011;66564;42.482;25.548;2024-03-29T06:17:02;8.35;;;2.88;;
77466;SDS011;66564;42.482;25.548;2024-03-29T06:19:46;18.60;;;2.58;;
77466;SDS011;66564;42.482;25.548;2024-03-29T06:22:13;16.38;;;4.38;;
77466;SDS011;66564;42.482;25.548;2024-03-29T06:24:41;51.15;;;5.30;;
77466;SDS011;66564;42.482;25.548;2024-03-29T06:27:08;18.40;;;2.55;;
77466;SDS011;66564;42.482;25.548;2024-03-29T06:29:34;9.63;;;2.00;;
77466;SDS011;66564;42.482;25.548;2024-03-29T06:31:59;7.55;;;2.08;;
77466;SDS011;66564;42.482;25.548;2024-03-29T06:34:25;5.55;;;1.63;;
77466;SDS011;66564;42.482;25.548;2024-03-29T06:36:50;4.82;;;1.38;;
77466;SDS011;66564;42.482;25.548;2024-03-29T06:39:16;4.07;;;1.50;;
77466;SDS011;66564;42.482;25.548;2024-03-29T06:41:42;3.85;;;1.60;;
77466;SDS011;66564;42.482;25.548;2024-03-29T06:44:07;5.03;;;1.63;;
77466;SDS011;66564;42.482;25.548;2024-03-29T06:46:33;2.97;;;1.42;;
77466;SDS011;66564;42.482;25.548;2024-03-29T06:48:59;5.72;;;1.50;;
77466;SDS011;66564;42.482;25.548;2024-03-29T06:51:25;10.35;;;1.60;;
77466;SDS011;66564;42.482;25.548;2024-03-29T06:53:50;3.92;;;1.17;;
77466;SDS011;66564;42.482;25.548;2024-03-29T06:56:16;3.30;;;1.42;;
77466;SDS011;66564;42.482;25.548;2024-03-29T06:58:42;6.20;;;2.10;;
77466;SDS011;66564;42.482;25.548;2024-03-29T07:01:07;3.55;;;1.60;;
77466;SDS011;66564;42.482;25.548;2024-03-29T07:03:33;3.03;;;1.52;;
77466;SDS011;66564;42.482;25.548;2024-03-29T07:05:58;5.82;;;2.58;;
77466;SDS011;66564;42.482;25.548;2024-03-29T07:08:24;4.35;;;1.70;;
77466;SDS011;66564;42.482;25.548;2024-03-29T07:10:57;5.07;;;1.70;;
77466;SDS011;66564;42.482;25.548;2024-03-29T07:13:27;5.82;;;2.00;;
77466;SDS011;66564;42.482;25.548;2024-03-29T07:15:56;7.47;;;2.42;;
77466;SDS011;66564;42.482;25.548;2024-03-29T07:18:22;5.28;;;1.50;;
77466;SDS011;66564;42.482;25.548;2024-03-29T07:20:47;3.92;;;1.65;;
77466;SDS011;66564;42.482;25.548;2024-03-29T07:23:16;4.70;;;1.67;;
77466;SDS011;66564;42.482;25.548;2024-03-29T07:25:45;7.20;;;1.75;;
77466;SDS011;66564;42.482;25.548;2024-03-29T07:28:22;8.27;;;1.92;;
77466;SDS011;66564;42.482;25.548;2024-03-29T07:30:47;5.90;;;2.30;;
77466;SDS011;66564;42.482;25.548;2024-03-29T07:33:15;7.28;;;2.00;;
77466;SDS011;66564;42.482;25.548;2024-03-29T07:35:40;8.15;;;1.80;;
77466;SDS011;66564;42.482;25.548;2024-03-29T07:38:06;16.73;;;2.80;;
77466;SDS011;66564;42.482;25.548;2024-03-29T07:40:32;9.02;;;2.05;;
77466;SDS011;66564;42.482;25.548;2024-03-29T07:42:58;7.20;;;1.80;;
77466;SDS011;66564;42.482;25.548;2024-03-29T07:45:25;9.68;;;1.85;;
77466;SDS011;66564;42.482;25.548;2024-03-29T07:47:50;4.75;;;1.90;;
77466;SDS011;66564;42.482;25.548;2024-03-29T07:50:18;18.45;;;2.38;;
77466;SDS011;66564;42.482;25.548;2024-03-29T07:52:44;4.25;;;1.63;;
77466;SDS011;66564;42.482;25.548;2024-03-29T07:55:11;3.78;;;1.60;;
77466;SDS011;66564;42.482;25.548;2024-03-29T07:57:37;4.43;;;1.55;;
77466;SDS011;66564;42.482;25.548;2024-03-29T08:00:03;4.30;;;1.70;;
77466;SDS011;66564;42.482;25.548;2024-03-29T08:02:29;8.73;;;2.15;;
77466;SDS011;66564;42.482;25.548;2024-03-29T08:04:58;7.65;;;1.90;;
77466;SDS011;66564;42.482;25.548;2024-03-29T08:07:24;3.38;;;1.77;;
77466;SDS011;66564;42.482;25.548;2024-03-29T08:09:49;6.60;;;2.20;;
77466;SDS011;66564;42.482;25.548;2024-03-29T08:12:15;4.88;;;1.70;;
77466;SDS011;66564;42.482;25.548;2024-03-29T08:14:41;6.50;;;1.90;;
77466;SDS011;66564;42.482;25.548;2024-03-29T08:17:07;7.60;;;2.13;;
77466;SDS011;66564;42.482;25.548;2024-03-29T08:19:35;4.32;;;1.90;;
77466;SDS011;66564;42.482;25.548;2024-03-29T08:22:01;5.88;;;2.25;;
77466;SDS011;66564;42.482;25.548;2024-03-29T08:24:36;8.13;;;2.30;;
77466;SDS011;66564;42.482;25.548;2024-03-29T08:27:04;5.38;;;2.30;;
77466;SDS011;66564;42.482;25.548;2024-03-29T08:29:30;8.48;;;2.47;;
77466;SDS011;66564;42.482;25.548;2024-03-29T08:31:56;6.25;;;2.05;;
77466;SDS011;66564;42.482;25.548;2024-03-29T08:34:22;12.23;;;2.08;;
77466;SDS011;66564;42.482;25.548;2024-03-29T08:36:47;6.13;;;1.92;;
77466;SDS011;66564;42.482;25.548;2024-03-29T08:39:13;8.52;;;2.42;;
77466;SDS011;66564;42.482;25.548;2024-03-29T08:41:38;4.25;;;1.60;;
77466;SDS011;66564;42.482;25.548;2024-03-29T08:44:05;5.85;;;1.90;;
77466;SDS011;66564;42.482;25.548;2024-03-29T08:46:35;3.72;;;1.65;;
77466;SDS011;66564;42.482;25.548;2024-03-29T08:49:00;6.50;;;1.63;;
77466;SDS011;66564;42.482;25.548;2024-03-29T08:51:26;8.55;;;1.70;;
77466;SDS011;66564;42.482;25.548;2024-03-29T08:53:51;8.02;;;2.05;;
77466;SDS011;66564;42.482;25.548;2024-03-29T08:56:17;3.08;;;1.70;;
77466;SDS011;66564;42.482;25.548;2024-03-29T08:58:42;5.18;;;2.10;;
77466;SDS011;66564;42.482;25.548;2024-03-29T09:01:08;4.43;;;1.60;;
77466;SDS011;66564;42.482;25.548;2024-03-29T09:03:33;4.93;;;1.55;;
77466;SDS011;66564;42.482;25.548;2024-03-29T09:05:59;3.80;;;1.63;;
77466;SDS011;66564;42.482;25.548;2024-03-29T09:08:24;4.80;;;1.48;;
77466;SDS011;66564;42.482;25.548;2024-03-29T09:10:53;5.78;;;1.70;;
77466;SDS011;66564;42.482;25.548;2024-03-29T09:13:19;5.00;;;2.28;;
77466;SDS011;66564;42.482;25.548;2024-03-29T09:15:44;7.63;;;1.77;;
77466;SDS011;66564;42.482;25.548;2024-03-29T09:18:09;3.80;;;1.80;;
77466;SDS011;66564;42.482;25.548;2024-03-29T09:20:41;4.15;;;1.60;;
77466;SDS011;66564;42.482;25.548;2024-03-29T09:23:07;4.82;;;1.80;;
77466;SDS011;66564;42.482;25.548;2024-03-29T09:25:32;6.43;;;2.10;;
77466;SDS011;66564;42.482;25.548;2024-03-29T09:27:58;3.88;;;1.60;;
77466;SDS011;66564;42.482;25.548;2024-03-29T09:30:25;7.13;;;1.70;;
77466;SDS011;66564;42.482;25.548;2024-03-29T09:32:51;3.72;;;1.73;;
77466;SDS011;66564;42.482;25.548;2024-03-29T09:35:17;3.78;;;1.52;;
77466;SDS011;66564;42.482;25.548;2024-03-29T09:37:44;3.08;;;1.55;;
77466;SDS011;66564;42.482;25.548;2024-03-29T09:40:10;2.25;;;1.30;;
77466;SDS011;66564;42.482;25.548;2024-03-29T09:42:35;47.58;;;4.13;;
77466;SDS011;66564;42.482;25.548;2024-03-29T09:45:04;13.00;;;2.00;;
77466;SDS011;66564;42.482;25.548;2024-03-29T09:47:31;9.50;;;2.08;;
77466;SDS011;66564;42.482;25.548;2024-03-29T09:49:57;4.32;;;1.48;;
77466;SDS011;66564;42.482;25.548;2024-03-29T09:52:25;4.55;;;1.40;;
77466;SDS011;66564;42.482;25.548;2024-03-29T09:54:51;2.85;;;1.42;;
77466;SDS011;66564;42.482;25.548;2024-03-29T09:57:16;3.10;;;1.40;;
77466;SDS011;66564;42.482;25.548;2024-03-29T09:59:42;4.82;;;1.55;;
77466;SDS011;66564;42.482;25.548;2024-03-29T10:02:17;3.90;;;1.55;;
77466;SDS011;66564;42.482;25.548;2024-03-29T10:04:45;6.90;;;1.88;;
77466;SDS011;66564;42.482;25.548;2024-03-29T10:07:14;4.55;;;1.50;;
77466;SDS011;66564;42.482;25.548;2024-03-29T10:09:40;7.28;;;2.13;;
77466;SDS011;66564;42.482;25.548;2024-03-29T10:12:07;5.07;;;1.85;;
77466;SDS011;66564;42.482;25.548;2024-03-29T10:14:42;4.10;;;1.60;;
77466;SDS011;66564;42.482;25.548;2024-03-29T10:17:17;7.68;;;1.90;;
77466;SDS011;66564;42.482;25.548;2024-03-29T10:22:09;4.72;;;2.13;;
77466;SDS011;66564;42.482;25.548;2024-03-29T10:24:34;5.07;;;1.65;;
77466;SDS011;66564;42.482;25.548;2024-03-29T10:27:02;4.20;;;1.80;;
77466;SDS011;66564;42.482;25.548;2024-03-29T10:29:30;3.40;;;1.83;;
77466;SDS011;66564;42.482;25.548;2024-03-29T10:31:56;4.70;;;1.67;;
77466;SDS011;66564;42.482;25.548;2024-03-29T10:34:22;6.43;;;1.77;;
77466;SDS011;66564;42.482;25.548;2024-03-29T10:36:48;6.38;;;1.58;;
77466;SDS011;66564;42.482;25.548;2024-03-29T10:39:16;3.78;;;1.80;;
77466;SDS011;66564;42.482;25.548;2024-03-29T10:41:42;7.88;;;1.50;;
77466;SDS011;66564;42.482;25.548;2024-03-29T10:44:09;4.10;;;1.55;;
77466;SDS011;66564;42.482;25.548;2024-03-29T10:46:37;4.25;;;1.73;;
77466;SDS011;66564;42.482;25.548;2024-03-29T10:49:04;3.53;;;1.70;;
77466;SDS011;66564;42.482;25.548;2024-03-29T10:51:32;6.47;;;2.13;;
77466;SDS011;66564;42.482;25.548;2024-03-29T10:53:58;6.35;;;2.08;;
77466;SDS011;66564;42.482;25.548;2024-03-29T10:56:26;4.72;;;1.65;;
77466;SDS011;66564;42.482;25.548;2024-03-29T10:58:54;3.67;;;2.33;;
77466;SDS011;66564;42.482;25.548;2024-03-29T11:01:23;2.95;;;1.80;;
77466;SDS011;66564;42.482;25.548;2024-03-29T11:03:54;5.47;;;1.70;;
77466;SDS011;66564;42.482;25.548;2024-03-29T11:06:28;7.80;;;1.50;;
77466;SDS011;66564;42.482;25.548;2024-03-29T11:08:56;7.88;;;1.75;;
77466;SDS011;66564;42.482;25.548;2024-03-29T11:11:23;7.22;;;1.58;;
77466;SDS011;66564;42.482;25.548;2024-03-29T11:13:53;5.88;;;1.83;;
77466;SDS011;66564;42.482;25.548;2024-03-29T11:16:33;7.15;;;1.98;;
77466;SDS011;66564;42.482;25.548;2024-03-29T11:18:58;5.57;;;1.77;;
77466;SDS011;66564;42.482;25.548;2024-03-29T11:21:26;4.95;;;1.90;;
77466;SDS011;66564;42.482;25.548;2024-03-29T11:23:53;5.65;;;1.67;;
77466;SDS011;66564;42.482;25.548;2024-03-29T11:26:22;5.45;;;1.35;;
77466;SDS011;66564;42.482;25.548;2024-03-29T11:28:48;3.03;;;1.25;;
77466;SDS011;66564;42.482;25.548;2024-03-29T11:31:15;4.57;;;1.50;;
77466;SDS011;66564;42.482;25.548;2024-03-29T11:36:13;5.53;;;1.58;;
77466;SDS011;66564;42.482;25.548;2024-03-29T11:38:39;4.10;;;1.52;;
77466;SDS011;66564;42.482;25.548;2024-03-29T11:41:15;5.05;;;1.58;;
77466;SDS011;66564;42.482;25.548;2024-03-29T11:43:42;3.10;;;1.77;;
77466;SDS011;66564;42.482;25.548;2024-03-29T11:46:11;4.13;;;1.40;;
77466;SDS011;66564;42.482;25.548;2024-03-29T11:48:38;5.40;;;1.35;;
77466;SDS011;66564;42.482;25.548;2024-03-29T11:51:05;4.25;;;1.60;;
77466;SDS011;66564;42.482;25.548;2024-03-29T11:53:33;4.53;;;1.90;;
77466;SDS011;66564;42.482;25.548;2024-03-29T11:56:00;5.55;;;1.80;;
77466;SDS011;66564;42.482;25.548;2024-03-29T11:58:26;4.47;;;1.73;;
77466;SDS011;66564;42.482;25.548;2024-03-29T12:00:54;3.58;;;1.65;;
77466;SDS011;66564;42.482;25.548;2024-03-29T12:03:21;3.80;;;1.77;;
77466;SDS011;66564;42.482;25.548;2024-03-29T12:05:48;2.72;;;1.50;;
77466;SDS011;66564;42.482;25.548;2024-03-29T12:08:19;5.78;;;1.40;;
77466;SDS011;66564;42.482;25.548;2024-03-29T12:10:46;7.97;;;2.15;;
77466;SDS011;66564;42.482;25.548;2024-03-29T12:13:13;3.22;;;1.48;;
77466;SDS011;66564;42.482;25.548;2024-03-29T12:15:40;6.40;;;1.50;;
77466;SDS011;66564;42.482;25.548;2024-03-29T12:18:06;6.22;;;1.42;;
77466;SDS011;66564;42.482;25.548;2024-03-29T12:20:32;2.67;;;1.40;;
77466;SDS011;66564;42.482;25.548;2024-03-29T12:22:59;4.40;;;1.50;;
77466;SDS011;66564;42.482;25.548;2024-03-29T12:25:26;5.88;;;1.40;;
77466;SDS011;66564;42.482;25.548;2024-03-29T12:27:52;1.52;;;1.13;;
77466;SDS011;66564;42.482;25.548;2024-03-29T12:30:18;4.57;;;1.38;;
77466;SDS011;66564;42.482;25.548;2024-03-29T12:32:44;6.78;;;2.40;;
77466;SDS011;66564;42.482;25.548;2024-03-29T12:35:13;8.27;;;1.77;;
77466;SDS011;66564;42.482;25.548;2024-03-29T12:37:49;3.85;;;1.65;;
77466;SDS011;66564;42.482;25.548;2024-03-29T12:40:19;3.30;;;1.60;;
77466;SDS011;66564;42.482;25.548;2024-03-29T12:42:50;4.03;;;1.60;;
77466;SDS011;66564;42.482;25.548;2024-03-29T12:45:20;7.90;;;1.88;;
77466;SDS011;66564;42.482;25.548;2024-03-29T12:47:47;3.95;;;1.75;;
77466;SDS011;66564;42.482;25.548;2024-03-29T12:50:13;4.68;;;1.60;;
77466;SDS011;66564;42.482;25.548;2024-03-29T12:52:49;4.65;;;2.15;;
77466;SDS011;66564;42.482;25.548;2024-03-29T12:55:14;6.85;;;2.00;;
77466;SDS011;66564;42.482;25.548;2024-03-29T12:57:46;2.80;;;1.60;;
77466;SDS011;66564;42.482;25.548;2024-03-29T13:00:12;5.20;;;1.92;;
77466;SDS011;66564;42.482;25.548;2024-03-29T13:02:38;3.75;;;2.00;;
77466;SDS011;66564;42.482;25.548;2024-03-29T13:05:03;13.43;;;2.03;;
77466;SDS011;66564;42.482;25.548;2024-03-29T13:07:33;10.00;;;2.22;;
77466;SDS011;66564;42.482;25.548;2024-03-29T13:12:28;6.03;;;2.25;;
77466;SDS011;66564;42.482;25.548;2024-03-29T13:14:54;9.15;;;1.73;;
77466;SDS011;66564;42.482;25.548;2024-03-29T13:17:20;5.00;;;1.80;;
77466;SDS011;66564;42.482;25.548;2024-03-29T13:19:45;8.02;;;1.77;;
77466;SDS011;66564;42.482;25.548;2024-03-29T13:22:11;3.30;;;1.60;;
77466;SDS011;66564;42.482;25.548;2024-03-29T13:24:36;7.97;;;1.75;;
77466;SDS011;66564;42.482;25.548;2024-03-29T13:27:02;6.97;;;2.25;;
77466;SDS011;66564;42.482;25.548;2024-03-29T13:29:30;4.18;;;1.40;;
77466;SDS011;66564;42.482;25.548;2024-03-29T13:31:55;3.70;;;1.80;;
77466;SDS011;66564;42.482;25.548;2024-03-29T13:34:22;5.13;;;1.70;;
77466;SDS011;66564;42.482;25.548;2024-03-29T13:36:47;5.30;;;1.40;;
77466;SDS011;66564;42.482;25.548;2024-03-29T13:39:13;4.68;;;1.45;;
77466;SDS011;66564;42.482;25.548;2024-03-29T13:41:40;4.90;;;1.60;;
77466;SDS011;66564;42.482;25.548;2024-03-29T13:44:06;5.20;;;1.83;;
77466;SDS011;66564;42.482;25.548;2024-03-29T13:46:35;2.90;;;1.63;;
77466;SDS011;66564;42.482;25.548;2024-03-29T13:49:01;4.68;;;1.98;;
77466;SDS011;66564;42.482;25.548;2024-03-29T13:51:30;3.85;;;1.85;;
77466;SDS011;66564;42.482;25.548;2024-03-29T13:53:55;4.30;;;1.65;;
77466;SDS011;66564;42.482;25.548;2024-03-29T13:56:21;3.83;;;1.70;;
77466;SDS011;66564;42.482;25.548;2024-03-29T13:58:47;4.60;;;1.85;;
77466;SDS011;66564;42.482;25.548;2024-03-29T14:01:13;5.47;;;1.77;;
77466;SDS011;66564;42.482;25.548;2024-03-29T14:03:39;5.68;;;1.45;;
77466;SDS011;66564;42.482;25.548;2024-03-29T14:06:04;2.42;;;1.35;;
77466;SDS011;66564;42.482;25.548;2024-03-29T14:08:31;4.95;;;1.67;;
77466;SDS011;66564;42.482;25.548;2024-03-29T14:10:57;3.67;;;1.40;;
77466;SDS011;66564;42.482;25.548;2024-03-29T14:13:23;5.03;;;1.60;;
77466;SDS011;66564;42.482;25.548;2024-03-29T14:15:49;7.97;;;2.00;;
77466;SDS011;66564;42.482;25.548;2024-03-29T14:18:14;3.72;;;1.58;;
77466;SDS011;66564;42.482;25.548;2024-03-29T14:20:40;3.50;;;1.40;;
77466;SDS011;66564;42.482;25.548;2024-03-29T14:23:06;4.38;;;1.80;;
77466;SDS011;66564;42.482;25.548;2024-03-29T14:25:33;9.75;;;2.05;;
77466;SDS011;66564;42.482;25.548;2024-03-29T14:27:59;9.55;;;1.95;;
77466;SDS011;66564;42.482;25.548;2024-03-29T14:30:27;7.72;;;2.00;;
77466;SDS011;66564;42.482;25.548;2024-03-29T14:32:53;6.22;;;1.80;;
77466;SDS011;66564;42.482;25.548;2024-03-29T14:35:19;2.95;;;1.58;;
77466;SDS011;66564;42.482;25.548;2024-03-29T14:37:45;4.43;;;1.70;;